createdAt,value
2023-04-23T00:02:37.715Z,13.57
2023-04-23T00:05:27.889Z,16.65
2023-04-23T00:08:14.636Z,15.35
2023-04-23T00:11:00.284Z,12.18
2023-04-23T00:13:47.403Z,12.50
2023-04-23T00:16:33.180Z,11.85
2023-04-23T00:19:18.556Z,19.05
2023-04-23T00:22:04.037Z,14.77
2023-04-23T00:24:49.429Z,18.83
2023-04-23T00:27:35.056Z,17.17
2023-04-23T00:30:20.274Z,21.92
2023-04-23T00:33:05.684Z,18.25
2023-04-23T00:35:51.044Z,18.73
2023-04-23T00:38:36.372Z,19.35
2023-04-23T00:41:21.938Z,18.45
2023-04-23T00:44:07.196Z,20.65
2023-04-23T00:46:53.868Z,18.48
2023-04-23T00:49:39.671Z,20.10
2023-04-23T00:52:25.047Z,19.65
2023-04-23T00:55:10.358Z,16.13
2023-04-23T00:57:55.933Z,19.95
2023-04-23T01:00:46.981Z,16.42
2023-04-23T01:03:36.501Z,14.93
2023-04-23T01:06:25.101Z,14.88
2023-04-23T01:09:10.755Z,14.13
2023-04-23T01:11:58.001Z,12.73
2023-04-23T01:14:44.021Z,11.70
2023-04-23T01:17:29.352Z,17.85
2023-04-23T01:20:14.378Z,21.58
2023-04-23T01:22:59.815Z,15.10
2023-04-23T01:25:44.970Z,15.27
2023-04-23T01:28:30.425Z,16.15
2023-04-23T01:31:17.023Z,14.60
2023-04-23T01:34:02.624Z,16.15
2023-04-23T01:36:48.025Z,15.05
2023-04-23T01:39:33.385Z,14.35
2023-04-23T01:42:19.851Z,14.57
2023-04-23T01:45:08.019Z,16.10
2023-04-23T01:47:53.791Z,11.13
2023-04-23T01:50:39.894Z,10.30
2023-04-23T01:53:25.097Z,13.27
2023-04-23T01:56:10.739Z,18.20
2023-04-23T01:58:56.616Z,13.45
2023-04-23T02:01:46.665Z,15.05
2023-04-23T02:04:32.599Z,12.65
2023-04-23T02:07:18.253Z,9.77
2023-04-23T02:10:04.160Z,9.38
2023-04-23T02:12:49.570Z,10.30
2023-04-23T02:15:35.080Z,12.00
2023-04-23T02:18:20.567Z,13.80
2023-04-23T02:21:07.064Z,10.77
2023-04-23T02:23:52.308Z,14.50
2023-04-23T02:26:37.624Z,14.60
2023-04-23T02:29:23.026Z,13.95
2023-04-23T02:32:08.380Z,19.08
2023-04-23T02:34:54.684Z,16.63
2023-04-23T02:37:40.065Z,12.93
2023-04-23T02:40:25.421Z,14.15
2023-04-23T02:43:10.953Z,17.65
2023-04-23T02:45:56.427Z,15.70
2023-04-23T02:48:41.871Z,14.95
2023-04-23T02:51:27.379Z,19.98
2023-04-23T02:54:13.391Z,17.10
2023-04-23T02:56:59.007Z,13.45
2023-04-23T02:59:43.888Z,14.65
2023-04-23T03:02:29.221Z,15.60
2023-04-23T03:05:14.383Z,14.57
2023-04-23T03:07:59.855Z,12.40
2023-04-23T03:10:45.084Z,13.15
2023-04-23T03:13:30.770Z,15.43
2023-04-23T03:16:16.072Z,15.88
2023-04-23T03:19:01.431Z,10.43
2023-04-23T03:21:46.353Z,13.77
2023-04-23T03:24:33.450Z,11.82
2023-04-23T03:27:18.531Z,13.95
2023-04-23T03:30:04.215Z,11.93
2023-04-23T03:32:50.599Z,13.95
2023-04-23T03:35:36.211Z,18.35
2023-04-23T03:38:21.331Z,11.60
2023-04-23T03:41:06.574Z,12.18
2023-04-23T03:43:52.008Z,11.70
2023-04-23T03:46:37.437Z,10.00
2023-04-23T03:49:23.068Z,13.63
2023-04-23T03:52:08.141Z,13.48
2023-04-23T03:54:53.360Z,13.35
2023-04-23T03:57:38.785Z,18.73
2023-04-23T04:00:24.060Z,16.80
2023-04-23T04:03:09.782Z,15.00
2023-04-23T04:05:55.177Z,15.93
2023-04-23T04:08:40.616Z,12.88
2023-04-23T04:11:27.031Z,16.98
2023-04-23T04:14:12.145Z,11.75
2023-04-23T04:16:57.750Z,13.10
2023-04-23T04:19:43.166Z,13.73
2023-04-23T04:22:29.278Z,10.10
2023-04-23T04:25:14.511Z,17.48
2023-04-23T04:28:00.489Z,14.18
2023-04-23T04:30:45.698Z,16.08
2023-04-23T04:33:31.012Z,16.58
2023-04-23T04:36:16.114Z,15.95
2023-04-23T04:39:01.820Z,16.10
2023-04-23T04:41:48.109Z,13.90
2023-04-23T04:44:37.742Z,14.10
2023-04-23T04:47:23.371Z,14.40
2023-04-23T04:50:08.903Z,17.38
2023-04-23T04:52:53.876Z,16.33
2023-04-23T04:55:38.854Z,14.07
2023-04-23T04:58:24.259Z,14.52
2023-04-23T05:01:09.569Z,14.75
2023-04-23T05:03:56.239Z,11.13
2023-04-23T05:06:41.514Z,12.15
2023-04-23T05:09:26.827Z,16.52
2023-04-23T05:12:12.204Z,18.25
2023-04-23T05:14:57.246Z,14.75
2023-04-23T05:17:42.776Z,14.20
2023-04-23T05:20:28.119Z,15.35
2023-04-23T05:23:13.163Z,18.40
2023-04-23T05:25:58.890Z,15.63
2023-04-23T05:28:43.841Z,19.13
2023-04-23T05:31:29.544Z,19.52
2023-04-23T05:34:15.063Z,20.85
2023-04-23T05:37:00.911Z,25.67
2023-04-23T05:39:46.008Z,30.83
2023-04-23T05:42:31.437Z,27.15
2023-04-23T05:45:16.967Z,26.85
2023-04-23T05:48:02.301Z,26.45
2023-04-23T05:50:49.353Z,19.02
2023-04-23T05:53:34.505Z,18.02
2023-04-23T05:56:19.869Z,18.40
2023-04-23T05:59:06.162Z,19.20
2023-04-23T06:01:51.530Z,19.52
2023-04-23T06:04:37.654Z,17.23
2023-04-23T06:07:23.099Z,17.42
2023-04-23T06:10:08.978Z,19.67
2023-04-23T06:12:55.774Z,20.80
2023-04-23T06:15:41.354Z,17.67
2023-04-23T06:18:27.623Z,18.65
2023-04-23T06:21:12.918Z,18.58
2023-04-23T06:23:58.308Z,17.98
2023-04-23T06:26:43.558Z,17.10
2023-04-23T06:29:28.950Z,21.52
2023-04-23T06:32:14.027Z,17.58
2023-04-23T06:35:02.083Z,21.90
2023-04-23T06:37:47.950Z,17.58
2023-04-23T06:40:33.836Z,23.20
2023-04-23T06:43:18.965Z,25.08
2023-04-23T06:46:04.284Z,21.90
2023-04-23T06:48:49.519Z,18.05
2023-04-23T06:51:34.954Z,20.20
2023-04-23T06:54:20.057Z,16.13
2023-04-23T06:57:05.754Z,14.93
2023-04-23T06:59:51.615Z,16.10
2023-04-23T07:02:38.121Z,14.38
2023-04-23T07:05:23.537Z,16.48
2023-04-23T07:08:08.923Z,13.65
2023-04-23T07:10:54.392Z,11.80
2023-04-23T07:13:39.949Z,19.25
2023-04-23T07:16:25.973Z,19.83
2023-04-23T07:19:11.518Z,11.00
2023-04-23T07:21:56.718Z,12.80
2023-04-23T07:24:42.458Z,11.13
2023-04-23T07:27:28.017Z,16.17
2023-04-23T07:30:13.610Z,13.75
2023-04-23T07:32:58.940Z,14.13
2023-04-23T07:35:44.048Z,13.48
2023-04-23T07:38:29.465Z,12.10
2023-04-23T07:41:14.543Z,13.73
2023-04-23T07:44:00.000Z,8.73
2023-04-23T07:46:45.287Z,7.70
2023-04-23T07:49:31.191Z,8.95
2023-04-23T07:52:17.435Z,10.20
2023-04-23T07:55:03.252Z,6.35
2023-04-23T07:57:48.709Z,10.75
2023-04-23T08:00:34.107Z,9.80
2023-04-23T08:03:19.546Z,8.63
2023-04-23T08:06:05.934Z,6.78
2023-04-23T08:08:51.322Z,8.38
2023-04-23T08:11:36.647Z,12.23
2023-04-23T08:14:21.988Z,10.65
2023-04-23T08:17:07.196Z,5.80
2023-04-23T08:19:52.489Z,13.88
2023-04-23T08:22:37.771Z,7.72
2023-04-23T08:25:23.451Z,8.20
2023-04-23T08:28:08.370Z,9.63
2023-04-23T08:30:53.907Z,9.23
2023-04-23T08:33:38.927Z,9.18
2023-04-23T08:36:24.697Z,11.40
2023-04-23T08:39:10.148Z,6.30
2023-04-23T08:41:56.284Z,8.60
2023-04-23T08:44:43.086Z,9.10
2023-04-23T08:47:30.124Z,8.00
2023-04-23T08:50:18.123Z,10.75
2023-04-23T08:53:06.488Z,8.43
2023-04-23T08:55:52.453Z,7.20
2023-04-23T08:58:37.782Z,7.15
2023-04-23T09:01:22.906Z,6.15
2023-04-23T09:04:09.149Z,5.38
2023-04-23T09:06:55.921Z,9.85
2023-04-23T09:09:41.741Z,5.20
2023-04-23T09:12:27.558Z,11.70
2023-04-23T09:15:13.309Z,8.02
2023-04-23T09:18:00.870Z,6.40
2023-04-23T09:20:46.316Z,7.03
2023-04-23T09:23:32.152Z,5.47
2023-04-23T09:26:22.182Z,9.80
2023-04-23T09:29:17.393Z,8.45
2023-04-23T09:32:08.381Z,5.45
2023-04-23T09:34:57.032Z,6.38
2023-04-23T09:37:43.763Z,6.10
2023-04-23T09:40:29.047Z,6.82
2023-04-23T09:43:14.447Z,5.75
2023-04-23T09:45:59.791Z,8.20
2023-04-23T09:48:45.040Z,6.85
2023-04-23T09:51:30.713Z,7.90
2023-04-23T09:54:21.844Z,8.57
2023-04-23T09:57:08.886Z,9.20
2023-04-23T10:00:07.218Z,8.15
2023-04-23T10:03:00.262Z,6.22
2023-04-23T10:06:00.353Z,7.13
2023-04-23T10:08:47.338Z,9.82
2023-04-23T10:11:33.084Z,6.65
2023-04-23T10:14:18.956Z,7.57
2023-04-23T10:17:05.395Z,7.10
2023-04-23T10:19:52.247Z,9.95
2023-04-23T10:22:39.241Z,7.70
2023-04-23T10:25:25.742Z,6.72
2023-04-23T10:28:11.895Z,10.63
2023-04-23T10:30:58.290Z,7.55
2023-04-23T10:33:56.137Z,8.52
2023-04-23T10:36:44.558Z,5.43
2023-04-23T10:39:34.398Z,5.68
2023-04-23T10:42:20.720Z,6.35
2023-04-23T10:45:24.211Z,6.30
2023-04-23T10:48:10.909Z,7.65
2023-04-23T10:51:14.465Z,5.78
2023-04-23T10:54:05.730Z,11.63
2023-04-23T10:56:58.960Z,4.55
2023-04-23T10:59:55.995Z,3.92
2023-04-23T11:02:47.349Z,6.15
2023-04-23T11:05:35.700Z,6.85
2023-04-23T11:08:20.966Z,7.88
2023-04-23T11:11:09.548Z,16.77
2023-04-23T11:13:54.731Z,5.32
2023-04-23T11:16:41.233Z,5.30
2023-04-23T11:19:26.406Z,7.28
2023-04-23T11:22:20.627Z,6.30
2023-04-23T11:25:10.407Z,7.05
2023-04-23T11:27:58.639Z,8.25
2023-04-23T11:30:44.347Z,6.18
2023-04-23T11:33:29.673Z,9.63
2023-04-23T11:36:15.735Z,9.00
2023-04-23T11:39:04.014Z,10.32
2023-04-23T11:41:50.232Z,7.88
2023-04-23T11:44:38.639Z,6.30
2023-04-23T11:47:26.485Z,11.52
2023-04-23T11:50:23.885Z,9.10
2023-04-23T11:53:11.613Z,9.35
2023-04-23T11:55:56.627Z,7.28
2023-04-23T11:58:41.771Z,8.10
2023-04-23T12:01:27.201Z,8.38
2023-04-23T12:04:14.582Z,7.25
2023-04-23T12:07:00.230Z,8.15
2023-04-23T12:09:45.972Z,7.68
2023-04-23T12:12:35.474Z,9.38
2023-04-23T12:15:21.075Z,6.70
2023-04-23T12:18:11.087Z,7.03
2023-04-23T12:21:04.826Z,14.43
2023-04-23T12:23:51.819Z,10.85
2023-04-23T12:26:39.306Z,9.57
2023-04-23T12:29:25.766Z,5.60
2023-04-23T12:32:11.950Z,8.32
2023-04-23T12:34:57.897Z,10.60
2023-04-23T12:37:43.396Z,11.00
2023-04-23T12:40:28.695Z,11.95
2023-04-23T12:43:14.046Z,9.52
2023-04-23T12:45:59.469Z,8.32
2023-04-23T12:48:44.672Z,10.15
2023-04-23T12:51:30.096Z,8.25
2023-04-23T12:54:15.672Z,9.63
2023-04-23T12:57:04.324Z,15.38
2023-04-23T12:59:49.511Z,9.50
2023-04-23T13:02:34.826Z,7.93
2023-04-23T13:05:20.092Z,10.25
2023-04-23T13:08:05.536Z,9.73
2023-04-23T13:10:50.871Z,8.35
2023-04-23T13:13:36.591Z,7.78
2023-04-23T13:16:21.705Z,9.82
2023-04-23T13:19:07.036Z,11.68
2023-04-23T13:21:52.449Z,10.10
2023-04-23T13:24:37.768Z,6.90
2023-04-23T13:27:25.222Z,7.53
2023-04-23T13:30:11.082Z,9.98
2023-04-23T13:32:57.725Z,8.00
2023-04-23T13:35:43.436Z,6.82
2023-04-23T13:38:29.424Z,8.93
2023-04-23T13:41:14.506Z,9.30
2023-04-23T13:44:00.148Z,8.00
2023-04-23T13:46:45.417Z,9.40
2023-04-23T13:49:30.787Z,8.13
2023-04-23T13:52:16.113Z,7.25
2023-04-23T13:55:03.947Z,7.22
2023-04-23T13:57:49.409Z,8.48
2023-04-23T14:00:34.699Z,7.05
2023-04-23T14:03:22.967Z,7.80
2023-04-23T14:06:08.573Z,8.20
2023-04-23T14:08:53.838Z,8.32
2023-04-23T14:11:40.599Z,6.63
2023-04-23T14:14:25.670Z,7.40
2023-04-23T14:17:11.229Z,8.10
2023-04-23T14:19:56.396Z,10.02
2023-04-23T14:22:42.713Z,6.63
2023-04-23T14:25:40.049Z,9.05
2023-04-23T14:28:44.920Z,5.85
2023-04-23T14:31:34.030Z,8.50
2023-04-23T14:37:04.585Z,5.72
2023-04-23T14:39:49.822Z,8.15
2023-04-23T14:42:35.092Z,7.32
2023-04-23T14:45:20.413Z,13.18
2023-04-23T14:48:05.897Z,8.18
2023-04-23T14:50:51.562Z,7.57
2023-04-23T14:53:36.800Z,6.82
2023-04-23T14:56:22.168Z,7.88
2023-04-23T14:59:07.762Z,9.23
2023-04-23T15:01:52.862Z,17.92
2023-04-23T15:04:38.235Z,6.93
2023-04-23T15:07:23.502Z,17.63
2023-04-23T15:10:11.344Z,17.35
2023-04-23T15:13:15.080Z,4.25
2023-04-23T15:16:07.500Z,7.38
2023-04-23T15:18:52.826Z,7.85
2023-04-23T15:21:38.988Z,7.00
2023-04-23T15:24:24.070Z,8.13
2023-04-23T15:27:11.702Z,6.60
2023-04-23T15:29:57.641Z,5.72
2023-04-23T15:32:42.783Z,9.43
2023-04-23T15:35:28.245Z,6.40
2023-04-23T15:38:13.500Z,5.18
2023-04-23T15:40:59.749Z,7.10
2023-04-23T15:43:44.736Z,5.38
2023-04-23T15:46:30.292Z,8.07
2023-04-23T15:49:15.491Z,6.50
2023-04-23T15:52:00.816Z,8.88
2023-04-23T15:54:46.309Z,7.88
2023-04-23T15:57:32.291Z,14.25
2023-04-23T16:00:18.862Z,8.95
2023-04-23T16:03:05.126Z,5.97
2023-04-23T16:05:52.278Z,6.15
2023-04-23T16:08:37.516Z,7.18
2023-04-23T16:11:23.121Z,5.57
2023-04-23T16:14:09.588Z,4.97
2023-04-23T16:16:55.566Z,9.55
2023-04-23T16:19:40.960Z,7.75
2023-04-23T16:22:26.450Z,8.73
2023-04-23T16:25:11.409Z,7.95
2023-04-23T16:27:57.196Z,8.00
2023-04-23T16:30:42.517Z,6.95
2023-04-23T16:33:27.803Z,5.72
2023-04-23T16:36:13.268Z,8.32
2023-04-23T16:38:59.241Z,5.00
2023-04-23T16:41:44.864Z,7.15
2023-04-23T16:44:30.762Z,6.63
2023-04-23T16:47:16.052Z,14.65
2023-04-23T16:50:02.494Z,17.92
2023-04-23T16:52:47.512Z,14.95
2023-04-23T16:55:32.876Z,9.18
2023-04-23T16:58:18.772Z,7.80
2023-04-23T17:01:04.174Z,8.25
2023-04-23T17:03:49.589Z,8.52
2023-04-23T17:06:35.444Z,5.43
2023-04-23T17:09:20.648Z,9.57
2023-04-23T17:12:06.017Z,7.43
2023-04-23T17:14:51.178Z,6.25
2023-04-23T17:17:36.609Z,8.23
2023-04-23T17:20:22.131Z,9.45
2023-04-23T17:23:07.307Z,7.97
2023-04-23T17:25:52.522Z,7.30
2023-04-23T17:28:40.747Z,11.07
2023-04-23T17:31:26.480Z,7.13
2023-04-23T17:34:11.709Z,8.63
2023-04-23T17:36:57.142Z,4.95
2023-04-23T17:39:42.482Z,8.85
2023-04-23T17:42:27.769Z,7.05
2023-04-23T17:45:13.100Z,6.95
2023-04-23T17:47:58.472Z,12.35
2023-04-23T17:50:44.722Z,6.15
2023-04-23T17:53:30.108Z,9.15
2023-04-23T17:56:15.741Z,7.18
2023-04-23T17:59:00.936Z,6.90
2023-04-23T18:01:46.390Z,8.32
2023-04-23T18:04:32.800Z,10.98
2023-04-23T18:07:19.232Z,7.88
2023-04-23T18:10:06.221Z,9.13
2023-04-23T18:12:51.425Z,7.22
2023-04-23T18:15:37.418Z,8.70
2023-04-23T18:18:22.761Z,10.05
2023-04-23T18:21:08.197Z,7.18
2023-04-23T18:23:53.492Z,9.63
2023-04-23T18:26:38.708Z,8.60
2023-04-23T18:29:25.323Z,5.53
2023-04-23T18:32:12.334Z,8.07
2023-04-23T18:35:02.452Z,9.65
2023-04-23T18:38:11.610Z,9.15
2023-04-23T18:40:59.072Z,8.43
2023-04-23T18:43:44.252Z,6.35
2023-04-23T18:46:31.132Z,9.85
2023-04-23T18:49:39.897Z,9.50
2023-04-23T18:52:25.083Z,11.20
2023-04-23T18:55:10.364Z,32.30
2023-04-23T18:57:56.245Z,10.43
2023-04-23T19:00:41.781Z,11.25
2023-04-23T19:03:29.147Z,9.40
2023-04-23T19:06:15.883Z,13.27
2023-04-23T19:09:01.569Z,10.80
2023-04-23T19:11:46.530Z,12.07
2023-04-23T19:14:32.929Z,11.48
2023-04-23T19:17:18.878Z,8.73
2023-04-23T19:20:04.688Z,11.88
2023-04-23T19:22:49.607Z,13.52
2023-04-23T19:25:35.678Z,8.85
2023-04-23T19:28:20.964Z,11.57
2023-04-23T19:31:06.580Z,10.40
2023-04-23T19:33:51.920Z,12.18
2023-04-23T19:36:37.327Z,10.80
2023-04-23T19:39:23.683Z,9.88
2023-04-23T19:42:10.702Z,8.13
2023-04-23T19:44:56.119Z,7.80
2023-04-23T19:47:41.473Z,11.05
2023-04-23T19:50:27.027Z,12.20
2023-04-23T19:53:12.098Z,12.27
2023-04-23T19:55:57.547Z,11.50
2023-04-23T19:58:42.744Z,10.32
2023-04-23T20:01:30.093Z,12.70
2023-04-23T20:04:16.258Z,8.82
2023-04-23T20:07:01.883Z,10.18
2023-04-23T20:09:47.440Z,14.02
2023-04-23T20:12:33.860Z,8.52
2023-04-23T20:15:21.640Z,7.43
2023-04-23T20:18:07.178Z,10.77
2023-04-23T20:20:53.062Z,11.45
2023-04-23T20:23:38.067Z,13.52
2023-04-23T20:26:23.475Z,6.88
2023-04-23T20:29:08.796Z,9.50
2023-04-23T20:31:54.307Z,12.75
2023-04-23T20:34:39.589Z,10.00
2023-04-23T20:37:27.087Z,11.52
2023-04-23T20:40:12.866Z,9.45
2023-04-23T20:42:58.591Z,9.75
2023-04-23T20:45:44.297Z,10.98
2023-04-23T20:48:30.010Z,12.75
2023-04-23T20:51:15.818Z,9.07
2023-04-23T20:54:01.828Z,7.18
2023-04-23T20:56:47.235Z,10.65
2023-04-23T20:59:32.805Z,9.65
2023-04-23T21:02:18.149Z,9.23
2023-04-23T21:05:06.261Z,13.13
2023-04-23T21:07:52.349Z,10.18
2023-04-23T21:10:41.294Z,10.07
2023-04-23T21:13:26.634Z,9.32
2023-04-23T21:16:12.404Z,10.48
2023-04-23T21:18:57.913Z,9.93
2023-04-23T21:21:43.358Z,10.27
2023-04-23T21:24:28.503Z,10.05
2023-04-23T21:27:21.534Z,10.65
2023-04-23T21:30:15.939Z,9.63
2023-04-23T21:33:01.347Z,10.93
2023-04-23T21:35:46.912Z,14.63
2023-04-23T21:38:33.546Z,10.57
2023-04-23T21:41:19.264Z,13.02
2023-04-23T21:44:04.858Z,7.93
2023-04-23T21:46:50.364Z,9.63
2023-04-23T21:49:35.786Z,10.15
2023-04-23T21:52:20.950Z,11.98
2023-04-23T21:55:06.666Z,9.45
2023-04-23T21:57:52.790Z,9.85
2023-04-23T22:00:39.043Z,8.98
2023-04-23T22:03:37.573Z,11.85
2023-04-23T22:06:24.281Z,8.75
2023-04-23T22:09:10.240Z,11.50
2023-04-23T22:12:01.509Z,13.05
2023-04-23T22:14:47.090Z,8.20
2023-04-23T22:17:35.677Z,10.13
2023-04-23T22:20:23.944Z,11.45
2023-04-23T22:23:09.432Z,9.52
2023-04-23T22:25:55.184Z,10.40
2023-04-23T22:28:40.349Z,11.35
2023-04-23T22:31:26.386Z,8.60
2023-04-23T22:34:12.077Z,9.77
2023-04-23T22:36:57.618Z,7.95
2023-04-23T22:39:43.262Z,14.07
2023-04-23T22:42:28.727Z,12.77
2023-04-23T22:45:14.120Z,8.63
2023-04-23T22:47:59.434Z,9.18
2023-04-23T22:50:44.697Z,13.25
2023-04-23T22:53:29.906Z,14.38
2023-04-23T22:56:15.458Z,18.75
2023-04-23T22:59:00.712Z,8.75
2023-04-23T23:01:47.167Z,10.80
2023-04-23T23:04:32.876Z,10.02
2023-04-23T23:07:18.045Z,12.48
2023-04-23T23:10:03.945Z,8.95
2023-04-23T23:12:49.561Z,9.68
2023-04-23T23:15:34.814Z,9.23
2023-04-23T23:18:20.161Z,9.63
2023-04-23T23:21:05.582Z,11.10
2023-04-23T23:23:50.974Z,10.18
2023-04-23T23:26:36.184Z,11.85
2023-04-23T23:29:21.324Z,9.10
2023-04-23T23:32:06.860Z,12.77
2023-04-23T23:34:52.173Z,8.75
2023-04-23T23:37:37.785Z,8.13
2023-04-23T23:40:23.524Z,5.95
2023-04-23T23:43:08.627Z,8.73
2023-04-23T23:45:54.198Z,11.82
2023-04-23T23:48:39.703Z,9.27
2023-04-23T23:51:24.999Z,6.68
2023-04-23T23:54:10.429Z,8.40
2023-04-23T23:56:57.246Z,10.65
2023-04-23T23:59:42.824Z,11.80
